Time;durP1;ratioP1;P1;durP2;ratioP2;P2;SDS_P1;SDS_P2;PMS_P1;PMS_P2;Temp;Humidity;BMP_temperature;BMP_pressure;BME280_temperature;BME280_humidity;BME280_pressure;Samples;Min_cycle;Max_cycle;Signal;HPM_P1;HPM_P2
2023/04/18 00:01:50;;;;;;;5.60;3.85;;;2.50;99.90;;;;;;5032723;28;20227;-62
2023/04/18 00:04:17;;;;;;;8.20;4.13;;;2.50;99.90;;;;;;5018973;28;20041;-62
2023/04/18 00:06:46;;;;;;;4.15;3.55;;;2.50;99.90;;;;;;5031877;28;20554;-73
2023/04/18 00:09:12;;;;;;;8.27;3.13;;;2.40;99.90;;;;;;5038723;28;20061;-74
2023/04/18 00:11:40;;;;;;;5.43;4.10;;;2.40;99.90;;;;;;5013917;28;20050;-62
2023/04/18 00:14:07;;;;;;;5.35;4.43;;;2.30;99.90;;;;;;5018208;28;20045;-64
2023/04/18 00:16:35;;;;;;;6.05;3.92;;;2.30;99.90;;;;;;5050286;28;20075;-66
2023/04/18 00:19:03;;;;;;;4.70;4.25;;;2.30;99.90;;;;;;5041226;28;20049;-69
2023/04/18 00:21:30;;;;;;;6.13;3.92;;;2.30;99.90;;;;;;5024173;28;20045;-65
2023/04/18 00:23:57;;;;;;;5.25;4.28;;;2.20;99.90;;;;;;5021932;28;20056;-73
2023/04/18 00:26:25;;;;;;;5.95;4.03;;;2.20;99.90;;;;;;5046833;28;20084;-64
2023/04/18 00:28:53;;;;;;;4.88;3.38;;;2.10;99.90;;;;;;5044034;28;20117;-66
2023/04/18 00:31:19;;;;;;;5.75;4.10;;;2.10;99.90;;;;;;5021991;28;20152;-63
2023/04/18 00:33:46;;;;;;;9.02;4.88;;;2.10;99.90;;;;;;5034624;28;20061;-68
2023/04/18 00:36:14;;;;;;;5.30;3.63;;;2.00;99.90;;;;;;5036428;28;20081;-66
2023/04/18 00:38:41;;;;;;;8.45;3.80;;;1.90;99.90;;;;;;5016451;28;20058;-68
2023/04/18 00:41:08;;;;;;;6.25;3.53;;;1.90;99.90;;;;;;5032632;28;20147;-70
2023/04/18 00:43:35;;;;;;;7.90;4.18;;;1.80;99.90;;;;;;5042671;28;20069;-62
2023/04/18 00:46:02;;;;;;;7.15;4.35;;;1.80;99.90;;;;;;5029015;28;20534;-67
2023/04/18 00:48:30;;;;;;;5.10;2.97;;;1.80;99.90;;;;;;5036311;28;20156;-62
2023/04/18 00:50:59;;;;;;;7.30;3.22;;;1.70;99.90;;;;;;5037652;28;20064;-66
2023/04/18 00:53:26;;;;;;;7.88;4.72;;;1.70;99.90;;;;;;5050922;28;20387;-68
2023/04/18 00:55:54;;;;;;;6.20;3.85;;;1.70;99.90;;;;;;5035192;28;20458;-68
2023/04/18 00:58:22;;;;;;;5.93;3.72;;;1.60;99.90;;;;;;5039648;28;20065;-70
2023/04/18 01:00:51;;;;;;;4.70;3.90;;;1.60;99.90;;;;;;5041178;28;20591;-70
2023/04/18 01:03:17;;;;;;;4.82;3.63;;;1.70;99.90;;;;;;5038232;28;20076;-65
2023/04/18 01:05:45;;;;;;;8.73;3.13;;;1.60;99.90;;;;;;5049152;28;20041;-65
2023/04/18 01:08:13;;;;;;;4.47;3.75;;;1.70;99.90;;;;;;5022844;28;20478;-67
2023/04/18 01:10:40;;;;;;;6.85;3.20;;;1.70;99.90;;;;;;5040794;28;20428;-63
2023/04/18 01:13:18;;;;;;;8.80;3.92;;;1.80;99.90;;;;;;5039010;28;20045;-62
2023/04/18 01:15:49;;;;;;;4.57;3.25;;;1.90;99.90;;;;;;5022512;28;20377;-66
2023/04/18 01:18:16;;;;;;;5.63;3.72;;;1.90;99.90;;;;;;5037927;28;20111;-67
2023/04/18 01:20:46;;;;;;;5.28;4.00;;;2.00;99.90;;;;;;5021815;28;20438;-69
2023/04/18 01:23:15;;;;;;;5.45;4.38;;;2.00;99.90;;;;;;5032090;28;20107;-61
2023/04/18 01:25:43;;;;;;;8.10;4.15;;;2.20;99.90;;;;;;5037144;28;20041;-61
2023/04/18 01:28:12;;;;;;;6.28;4.00;;;2.20;99.90;;;;;;5030916;28;20049;-64
2023/04/18 01:30:40;;;;;;;7.57;4.25;;;2.20;99.90;;;;;;5031469;28;20132;-65
2023/04/18 01:33:06;;;;;;;5.68;4.00;;;2.20;99.90;;;;;;5019818;28;20060;-65
2023/04/18 01:35:33;;;;;;;6.30;4.43;;;2.30;99.90;;;;;;5035682;28;20116;-68
2023/04/18 01:38:00;;;;;;;5.35;4.20;;;2.20;99.90;;;;;;5043962;28;20053;-62
2023/04/18 01:40:28;;;;;;;5.90;3.78;;;2.20;99.90;;;;;;5037928;28;20055;-64
2023/04/18 01:42:55;;;;;;;10.95;3.85;;;2.30;99.90;;;;;;5037850;28;20056;-63
2023/04/18 01:45:22;;;;;;;6.80;5.78;;;2.30;99.90;;;;;;5044723;28;20053;-62
2023/04/18 01:47:49;;;;;;;7.38;3.85;;;2.30;99.90;;;;;;5016291;28;20058;-63
2023/04/18 01:50:16;;;;;;;6.07;4.20;;;2.30;99.90;;;;;;5047035;28;20128;-65
2023/04/18 01:52:43;;;;;;;8.15;4.20;;;2.30;99.90;;;;;;5041181;28;20084;-64
2023/04/18 01:55:10;;;;;;;7.88;4.53;;;2.30;99.90;;;;;;5036321;28;20063;-65
2023/04/18 01:57:37;;;;;;;7.75;4.18;;;2.40;99.90;;;;;;5037919;28;20077;-68
2023/04/18 02:00:05;;;;;;;10.40;4.82;;;2.50;99.90;;;;;;5028231;28;20041;-64
2023/04/18 02:02:40;;;;;;;6.75;4.75;;;2.40;99.90;;;;;;5024103;28;20049;-64
2023/04/18 02:05:07;;;;;;;5.65;3.80;;;2.40;99.90;;;;;;5043221;28;20052;-68
2023/04/18 02:07:37;;;;;;;7.07;4.15;;;2.40;99.90;;;;;;5024571;28;20053;-73
2023/04/18 02:10:05;;;;;;;5.63;4.22;;;2.40;99.90;;;;;;5042032;28;20844;-63
2023/04/18 02:12:33;;;;;;;12.15;4.30;;;2.40;99.90;;;;;;5039261;28;20394;-65
2023/04/18 02:15:00;;;;;;;5.80;3.75;;;2.40;99.90;;;;;;5054691;28;20068;-64
2023/04/18 02:17:28;;;;;;;8.88;4.57;;;2.40;99.90;;;;;;5022837;28;20045;-65
2023/04/18 02:19:55;;;;;;;8.18;4.13;;;2.30;99.90;;;;;;5022422;28;20056;-67
2023/04/18 02:22:22;;;;;;;9.98;3.80;;;2.40;99.90;;;;;;5038403;28;20057;-64
2023/04/18 02:24:48;;;;;;;6.50;5.00;;;2.40;99.90;;;;;;5039623;28;20080;-67
2023/04/18 02:27:16;;;;;;;8.25;4.35;;;2.40;99.90;;;;;;5042989;28;20148;-67
2023/04/18 02:29:43;;;;;;;9.73;3.92;;;2.40;99.90;;;;;;5036718;28;20140;-68
2023/04/18 02:32:09;;;;;;;4.80;4.28;;;2.40;99.90;;;;;;5025460;28;20135;-63
2023/04/18 02:34:37;;;;;;;5.53;4.10;;;2.40;99.90;;;;;;5036249;28;20455;-65
2023/04/18 02:37:04;;;;;;;4.15;3.47;;;2.30;99.90;;;;;;5043306;28;20392;-63
2023/04/18 02:39:31;;;;;;;7.78;3.92;;;2.40;99.90;;;;;;5034936;28;20065;-64
2023/04/18 02:41:58;;;;;;;4.68;3.60;;;2.40;99.90;;;;;;5049168;28;20049;-65
2023/04/18 02:44:25;;;;;;;4.95;3.92;;;2.30;99.90;;;;;;5016883;28;20057;-63
2023/04/18 02:46:52;;;;;;;7.13;4.28;;;2.30;99.90;;;;;;5015682;28;20125;-68
2023/04/18 02:49:19;;;;;;;4.63;4.22;;;2.30;99.90;;;;;;5044184;28;20658;-64
2023/04/18 02:51:46;;;;;;;8.77;4.18;;;2.30;99.90;;;;;;5039736;28;20506;-69
2023/04/18 02:54:14;;;;;;;8.93;4.07;;;2.30;99.90;;;;;;5034841;28;20053;-67
2023/04/18 02:56:53;;;;;;;5.18;3.10;;;2.30;99.90;;;;;;5034368;28;20505;-65
2023/04/18 02:59:43;;;;;;;5.75;3.72;;;2.30;99.90;;;;;;5039831;28;20070;-65
2023/04/18 03:02:39;;;;;;;4.88;3.35;;;2.30;99.90;;;;;;5021287;28;20475;-65
2023/04/18 03:05:20;;;;;;;5.25;4.28;;;2.30;99.90;;;;;;5039835;28;20042;-64
2023/04/18 03:07:48;;;;;;;3.78;3.17;;;2.30;99.90;;;;;;5031624;28;20050;-65
2023/04/18 03:10:15;;;;;;;7.45;4.20;;;2.30;99.90;;;;;;5030552;28;20061;-66
2023/04/18 03:12:42;;;;;;;11.07;3.97;;;2.20;99.90;;;;;;5017031;28;20064;-70
2023/04/18 03:15:10;;;;;;;5.82;3.55;;;2.20;99.90;;;;;;5016651;28;20076;-62
2023/04/18 03:17:38;;;;;;;4.72;3.92;;;2.20;99.90;;;;;;5036868;28;20480;-71
2023/04/18 03:20:05;;;;;;;9.63;3.80;;;2.20;99.90;;;;;;5014047;28;20064;-66
2023/04/18 03:22:32;;;;;;;4.88;3.60;;;2.20;99.90;;;;;;5021816;28;20488;-67
2023/04/18 03:24:59;;;;;;;8.50;3.88;;;2.20;99.90;;;;;;5023069;28;20053;-63
2023/04/18 03:27:45;;;;;;;4.97;3.85;;;2.20;99.90;;;;;;5048813;28;20059;-69
2023/04/18 03:30:16;;;;;;;5.20;4.25;;;2.20;99.90;;;;;;5040379;28;20049;-63
2023/04/18 03:32:48;;;;;;;10.05;3.78;;;2.20;99.90;;;;;;5034013;28;20504;-70
2023/04/18 03:35:15;;;;;;;6.25;3.85;;;2.20;99.90;;;;;;5042247;28;20410;-66
2023/04/18 03:37:42;;;;;;;10.65;4.43;;;2.20;99.90;;;;;;5035834;28;20057;-70
2023/04/18 03:40:11;;;;;;;18.45;5.07;;;2.20;99.90;;;;;;5039737;28;20545;-64
2023/04/18 03:42:40;;;;;;;6.18;3.35;;;2.10;99.90;;;;;;5044421;28;20050;-67
2023/04/18 03:45:09;;;;;;;15.82;4.18;;;2.10;99.90;;;;;;5028818;28;20056;-70
2023/04/18 03:47:37;;;;;;;9.02;3.97;;;2.20;99.90;;;;;;5031762;28;20054;-63
2023/04/18 03:50:04;;;;;;;5.53;3.38;;;2.20;99.90;;;;;;5038675;28;20140;-70
2023/04/18 03:52:32;;;;;;;10.25;7.10;;;2.20;99.90;;;;;;5031564;28;20057;-64
2023/04/18 03:55:03;;;;;;;3.38;3.08;;;2.30;99.90;;;;;;5031514;28;20125;-68
2023/04/18 03:57:32;;;;;;;7.50;3.72;;;2.30;99.90;;;;;;5030933;28;20386;-66
2023/04/18 04:00:01;;;;;;;4.75;3.58;;;2.40;99.90;;;;;;5026615;28;20050;-66
2023/04/18 04:02:41;;;;;;;4.75;2.90;;;2.40;99.90;;;;;;5026929;28;20152;-71
2023/04/18 04:05:11;;;;;;;10.57;3.58;;;2.40;99.90;;;;;;5037808;28;20045;-68
2023/04/18 04:07:38;;;;;;;8.05;4.68;;;2.40;99.90;;;;;;5035077;28;20069;-68
2023/04/18 04:10:05;;;;;;;15.75;3.80;;;2.40;99.90;;;;;;5028571;28;20049;-67
2023/04/18 04:12:32;;;;;;;5.75;4.55;;;2.40;99.90;;;;;;5027104;28;20045;-66
2023/04/18 04:15:00;;;;;;;9.68;3.72;;;2.40;99.90;;;;;;5036124;28;20110;-76
2023/04/18 04:17:27;;;;;;;6.00;3.13;;;2.40;99.90;;;;;;5037338;28;20060;-66
2023/04/18 04:19:54;;;;;;;8.35;3.67;;;2.50;99.90;;;;;;5017308;28;20156;-63
2023/04/18 04:22:21;;;;;;;12.98;4.85;;;2.50;99.90;;;;;;5016427;28;20053;-72
2023/04/18 04:24:49;;;;;;;9.05;3.80;;;2.50;99.90;;;;;;5010365;28;20052;-69
2023/04/18 04:27:21;;;;;;;6.55;4.03;;;2.50;99.90;;;;;;5026177;28;20056;-67
2023/04/18 04:29:48;;;;;;;12.30;4.38;;;2.50;99.90;;;;;;5019570;28;20054;-66
2023/04/18 04:32:19;;;;;;;4.90;3.75;;;2.60;99.90;;;;;;5025943;28;20411;-64
2023/04/18 04:34:46;;;;;;;13.25;4.30;;;2.60;99.90;;;;;;5037930;28;20439;-71
2023/04/18 04:37:12;;;;;;;5.00;3.17;;;2.70;99.90;;;;;;5022893;28;20060;-66
2023/04/18 04:39:52;;;;;;;6.25;3.17;;;2.70;99.90;;;;;;5051704;28;20073;-67
2023/04/18 04:42:41;;;;;;;8.20;5.05;;;2.80;99.90;;;;;;5041335;28;20054;-68
2023/04/18 04:45:14;;;;;;;4.65;2.70;;;2.80;99.90;;;;;;5041721;28;20154;-65
2023/04/18 04:47:41;;;;;;;8.43;3.83;;;2.90;99.90;;;;;;5035142;28;20063;-62
2023/04/18 04:50:13;;;;;;;7.28;3.85;;;2.90;99.90;;;;;;5043088;28;20095;-64
2023/04/18 04:52:41;;;;;;;11.50;7.38;;;3.00;99.90;;;;;;5012726;28;20478;-67
2023/04/18 04:55:08;;;;;;;15.55;5.95;;;3.00;99.90;;;;;;5020135;28;20067;-64
2023/04/18 04:57:36;;;;;;;5.93;2.83;;;3.00;99.90;;;;;;5019938;28;20424;-65
2023/04/18 05:00:19;;;;;;;6.43;3.53;;;3.10;99.90;;;;;;5032319;28;20045;-61
2023/04/18 05:02:54;;;;;;;8.23;3.38;;;3.10;99.90;;;;;;5028199;28;20065;-66
2023/04/18 05:05:22;;;;;;;4.60;3.33;;;3.20;99.90;;;;;;5035636;28;20083;-63
2023/04/18 05:07:49;;;;;;;7.85;3.63;;;3.30;99.90;;;;;;5023362;28;20053;-68
2023/04/18 05:10:16;;;;;;;9.48;3.45;;;3.20;99.90;;;;;;5040957;28;20164;-65
2023/04/18 05:12:43;;;;;;;5.32;3.55;;;3.30;99.90;;;;;;5036451;28;20045;-65
2023/04/18 05:15:11;;;;;;;9.50;3.75;;;3.30;99.90;;;;;;5040783;28;20085;-65
2023/04/18 05:17:38;;;;;;;7.60;3.70;;;3.30;99.90;;;;;;5023388;28;20049;-66
2023/04/18 05:20:05;;;;;;;5.63;2.80;;;3.40;99.90;;;;;;5019688;28;20042;-62
2023/04/18 05:22:32;;;;;;;7.50;4.00;;;3.40;99.90;;;;;;5029604;28;20057;-62
2023/04/18 05:24:59;;;;;;;4.63;2.90;;;3.50;99.90;;;;;;5039186;28;20045;-63
2023/04/18 05:27:27;;;;;;;6.28;3.58;;;3.50;99.90;;;;;;5024045;28;20053;-72
2023/04/18 05:29:54;;;;;;;5.00;3.85;;;3.50;99.90;;;;;;5015168;28;20081;-64
2023/04/18 05:32:21;;;;;;;4.63;2.70;;;3.60;99.90;;;;;;5034026;28;20080;-62
2023/04/18 05:34:48;;;;;;;8.55;3.15;;;3.60;99.90;;;;;;5031739;28;20098;-64
2023/04/18 05:37:14;;;;;;;11.60;3.72;;;3.70;99.90;;;;;;5041023;28;20132;-61
2023/04/18 05:39:41;;;;;;;5.65;3.47;;;3.70;99.90;;;;;;5026375;28;20053;-64
2023/04/18 05:42:08;;;;;;;10.75;3.42;;;3.70;99.90;;;;;;5029037;28;20057;-66
2023/04/18 05:44:36;;;;;;;11.57;4.80;;;3.80;99.90;;;;;;5023963;28;20407;-63
2023/04/18 05:47:04;;;;;;;6.75;3.85;;;3.80;99.90;;;;;;5048715;28;20147;-64
2023/04/18 05:49:32;;;;;;;8.17;4.33;;;3.80;99.90;;;;;;5028916;28;20128;-63
2023/04/18 05:51:59;;;;;;;4.65;3.42;;;3.80;99.90;;;;;;5025281;28;20644;-72
2023/04/18 05:54:26;;;;;;;4.88;3.47;;;3.80;99.90;;;;;;5037900;28;20431;-62
2023/04/18 05:56:53;;;;;;;6.07;3.58;;;3.90;99.90;;;;;;5040549;28;20198;-62
2023/04/18 05:59:20;;;;;;;3.28;2.92;;;3.90;99.90;;;;;;5028625;28;20122;-61
2023/04/18 06:01:48;;;;;;;5.72;3.08;;;3.90;99.90;;;;;;5016199;28;20152;-63
2023/04/18 06:04:15;;;;;;;4.80;3.10;;;3.90;99.90;;;;;;5035663;28;20088;-70
2023/04/18 06:06:43;;;;;;;5.40;3.17;;;3.90;99.90;;;;;;5019107;28;20049;-67
2023/04/18 06:09:10;;;;;;;6.93;3.20;;;4.00;99.90;;;;;;5023398;28;20164;-63
2023/04/18 06:11:36;;;;;;;5.28;4.63;;;4.00;99.90;;;;;;5032041;28;20457;-63
2023/04/18 06:14:03;;;;;;;3.90;2.95;;;4.10;99.90;;;;;;5038369;28;20041;-69
2023/04/18 06:16:30;;;;;;;7.15;4.85;;;4.10;99.90;;;;;;5028238;28;20411;-63
2023/04/18 06:18:57;;;;;;;6.53;3.13;;;4.10;99.90;;;;;;5028632;28;20048;-62
2023/04/18 06:21:27;;;;;;;12.32;3.40;;;4.10;99.90;;;;;;5038874;28;20049;-64
2023/04/18 06:23:54;;;;;;;5.97;3.22;;;4.10;99.90;;;;;;5038830;28;20114;-62
2023/04/18 06:26:21;;;;;;;6.50;3.30;;;4.20;99.90;;;;;;5041270;28;20047;-67
2023/04/18 06:28:47;;;;;;;9.20;3.40;;;4.20;99.90;;;;;;5034822;28;20321;-65
2023/04/18 06:31:15;;;;;;;7.57;2.95;;;4.20;99.90;;;;;;5038443;28;20112;-64
2023/04/18 06:33:42;;;;;;;5.43;2.97;;;4.20;99.90;;;;;;5028842;28;20523;-65
2023/04/18 06:36:09;;;;;;;6.10;3.55;;;4.20;99.90;;;;;;5040511;28;20080;-66
2023/04/18 06:38:35;;;;;;;7.45;3.88;;;4.30;99.90;;;;;;5024304;28;20052;-62
2023/04/18 06:41:02;;;;;;;4.88;2.47;;;4.40;99.90;;;;;;5028790;28;20143;-67
2023/04/18 06:43:29;;;;;;;7.32;3.53;;;4.40;99.90;;;;;;5019548;28;20060;-63
2023/04/18 06:45:57;;;;;;;7.63;2.78;;;4.50;99.90;;;;;;5023821;28;20045;-66
2023/04/18 06:48:24;;;;;;;5.60;3.50;;;4.50;99.90;;;;;;5041379;28;20141;-64
2023/04/18 06:50:51;;;;;;;7.63;3.45;;;4.40;99.90;;;;;;5038454;28;20128;-66
2023/04/18 06:53:17;;;;;;;4.85;3.20;;;4.50;99.90;;;;;;5042504;28;20770;-64
2023/04/18 06:55:44;;;;;;;3.88;2.58;;;4.50;99.90;;;;;;5020026;28;20537;-64
2023/04/18 06:58:14;;;;;;;3.15;2.55;;;4.60;99.90;;;;;;5022017;28;20044;-62
2023/04/18 07:00:42;;;;;;;6.93;2.15;;;4.60;99.90;;;;;;5031933;28;20041;-61
2023/04/18 07:03:11;;;;;;;4.38;3.28;;;4.70;99.90;;;;;;5021610;28;20045;-66
2023/04/18 07:05:39;;;;;;;8.60;3.30;;;4.70;99.90;;;;;;5020471;28;20046;-67
2023/04/18 07:08:06;;;;;;;19.08;5.40;;;4.70;99.90;;;;;;5035683;28;20119;-62
2023/04/18 07:10:33;;;;;;;4.57;2.65;;;4.80;99.90;;;;;;5016861;28;20049;-67
2023/04/18 07:13:00;;;;;;;5.18;3.47;;;4.80;99.90;;;;;;5019218;28;20056;-71
2023/04/18 07:15:27;;;;;;;5.30;2.42;;;4.70;99.90;;;;;;5019982;28;20052;-68
2023/04/18 07:17:54;;;;;;;4.93;3.13;;;4.80;99.90;;;;;;5031022;28;20065;-65
2023/04/18 07:20:21;;;;;;;10.52;4.03;;;4.80;99.90;;;;;;5023109;28;20462;-70
2023/04/18 07:22:48;;;;;;;6.05;3.20;;;4.80;99.90;;;;;;5025740;28;20046;-66
2023/04/18 07:25:15;;;;;;;9.07;3.92;;;4.80;99.90;;;;;;5031224;28;20045;-67
2023/04/18 07:27:42;;;;;;;6.97;3.15;;;4.80;99.90;;;;;;5037465;28;20070;-75
2023/04/18 07:30:09;;;;;;;7.82;3.38;;;4.80;99.90;;;;;;5022621;28;20051;-65
2023/04/18 07:32:36;;;;;;;9.43;3.60;;;4.80;99.90;;;;;;5032250;28;20369;-64
2023/04/18 07:35:04;;;;;;;7.45;3.40;;;4.80;99.90;;;;;;5027132;28;20042;-76
2023/04/18 07:37:31;;;;;;;10.52;3.38;;;4.90;99.90;;;;;;5016876;28;20499;-70
2023/04/18 07:39:58;;;;;;;6.95;3.33;;;4.90;99.90;;;;;;5032471;28;20053;-62
2023/04/18 07:42:25;;;;;;;5.75;3.25;;;4.90;99.90;;;;;;5031580;28;20565;-65
2023/04/18 07:44:58;;;;;;;5.82;3.38;;;5.00;99.90;;;;;;5026031;28;20041;-64
2023/04/18 07:47:26;;;;;;;8.05;3.67;;;5.00;99.90;;;;;;5033318;28;20055;-69
2023/04/18 07:49:56;;;;;;;8.77;3.97;;;4.90;99.90;;;;;;5030967;28;20088;-68
2023/04/18 07:52:23;;;;;;;8.07;3.20;;;5.00;99.90;;;;;;5015776;28;20134;-63
2023/04/18 07:54:50;;;;;;;5.95;3.95;;;5.10;99.90;;;;;;5031668;28;20052;-64
2023/04/18 07:57:17;;;;;;;8.35;3.38;;;5.10;99.90;;;;;;5021421;28;20618;-71
2023/04/18 07:59:45;;;;;;;8.07;4.65;;;5.10;99.90;;;;;;5019990;28;20050;-64
2023/04/18 08:02:11;;;;;;;5.38;3.28;;;5.20;99.90;;;;;;5031582;28;20064;-64
2023/04/18 08:04:38;;;;;;;9.07;3.80;;;5.20;99.90;;;;;;5031491;28;20060;-62
2023/04/18 08:07:05;;;;;;;4.97;3.13;;;5.20;99.90;;;;;;5039241;28;20044;-65
2023/04/18 08:09:33;;;;;;;6.22;3.08;;;5.20;99.90;;;;;;5035628;28;20067;-65
2023/04/18 08:12:00;;;;;;;6.95;4.55;;;5.20;99.90;;;;;;5013814;28;20077;-65
2023/04/18 08:14:26;;;;;;;32.15;5.13;;;5.30;99.90;;;;;;5030615;28;20119;-62
2023/04/18 08:16:53;;;;;;;13.88;4.07;;;5.30;99.90;;;;;;5021590;28;20132;-64
2023/04/18 08:19:20;;;;;;;9.73;3.85;;;5.30;99.90;;;;;;5025207;28;20152;-63
2023/04/18 08:21:50;;;;;;;12.45;4.45;;;5.30;99.90;;;;;;5025379;28;20144;-70
2023/04/18 08:24:17;;;;;;;8.75;3.88;;;5.30;99.90;;;;;;5032942;28;20048;-61
2023/04/18 08:26:44;;;;;;;8.30;4.50;;;5.30;99.90;;;;;;5027114;28;21613;-64
2023/04/18 08:29:13;;;;;;;17.25;4.75;;;5.30;99.90;;;;;;5019532;28;20049;-62
2023/04/18 08:31:40;;;;;;;11.60;4.03;;;5.40;99.90;;;;;;5032441;28;20491;-68
2023/04/18 08:34:07;;;;;;;8.13;3.85;;;5.30;99.90;;;;;;5033852;28;20057;-63
2023/04/18 08:36:34;;;;;;;13.60;3.60;;;5.40;99.90;;;;;;5039854;28;20061;-64
2023/04/18 08:39:01;;;;;;;8.80;3.55;;;5.40;99.90;;;;;;5042501;28;20136;-69
2023/04/18 08:41:34;;;;;;;14.43;4.75;;;5.40;99.90;;;;;;5042353;28;20052;-70
2023/04/18 08:44:01;;;;;;;4.15;2.72;;;5.40;99.90;;;;;;5021346;28;20038;-68
2023/04/18 08:46:32;;;;;;;9.77;3.80;;;5.40;99.90;;;;;;5021230;28;20132;-66
2023/04/18 08:48:59;;;;;;;12.27;4.57;;;5.40;99.90;;;;;;5013984;28;20658;-64
2023/04/18 08:51:32;;;;;;;8.15;4.03;;;5.40;99.90;;;;;;5016508;28;20172;-63
2023/04/18 08:54:03;;;;;;;14.05;5.30;;;5.40;99.90;;;;;;5024650;28;20041;-65
2023/04/18 08:56:30;;;;;;;15.02;3.78;;;5.40;99.90;;;;;;5009143;28;20037;-65
2023/04/18 08:58:59;;;;;;;8.00;3.90;;;5.50;99.90;;;;;;5022237;28;20414;-67
2023/04/18 09:01:55;;;;;;;6.45;3.50;;;5.60;99.90;;;;;;5020128;28;20049;-64
2023/04/18 09:04:36;;;;;;;10.35;4.38;;;5.60;99.90;;;;;;5009292;28;20046;-68
2023/04/18 09:07:09;;;;;;;9.25;3.90;;;5.60;99.90;;;;;;5016834;28;20056;-65
2023/04/18 09:09:58;;;;;;;6.40;3.92;;;5.70;99.90;;;;;;5019205;28;20050;-63
2023/04/18 09:12:26;;;;;;;3.83;3.08;;;5.60;99.90;;;;;;5022493;28;20046;-69
2023/04/18 09:14:56;;;;;;;10.40;3.88;;;5.60;99.90;;;;;;5019396;28;20064;-67
2023/04/18 09:17:32;;;;;;;9.77;4.00;;;5.70;99.90;;;;;;5024229;28;20120;-69
2023/04/18 09:20:03;;;;;;;13.45;4.72;;;5.70;99.90;;;;;;5005864;28;20057;-71
2023/04/18 09:22:51;;;;;;;9.20;3.90;;;5.80;99.90;;;;;;5016593;28;20141;-69
2023/04/18 09:25:40;;;;;;;13.80;4.20;;;5.90;99.90;;;;;;5019791;28;20148;-63
2023/04/18 09:28:26;;;;;;;5.57;3.60;;;5.90;99.90;;;;;;4997798;28;20048;-63
2023/04/18 09:30:58;;;;;;;17.02;5.22;;;5.90;99.90;;;;;;5007121;28;20054;-63
2023/04/18 09:33:33;;;;;;;8.35;3.65;;;5.90;99.90;;;;;;5016199;28;20066;-69
2023/04/18 09:36:19;;;;;;;17.05;4.68;;;6.00;99.90;;;;;;4996362;28;20522;-75
2023/04/18 09:38:47;;;;;;;17.83;4.55;;;6.00;99.90;;;;;;5014935;28;20065;-67
2023/04/18 09:41:15;;;;;;;14.15;4.60;;;6.00;99.90;;;;;;5005711;28;20056;-67
2023/04/18 09:43:46;;;;;;;8.10;3.97;;;6.10;99.90;;;;;;5014977;28;20525;-71
2023/04/18 09:46:14;;;;;;;7.28;3.58;;;6.10;99.90;;;;;;5008531;28;20041;-66
2023/04/18 09:48:41;;;;;;;8.35;4.07;;;6.10;99.90;;;;;;5012744;28;20057;-63
2023/04/18 09:51:15;;;;;;;8.25;4.38;;;6.10;99.90;;;;;;5013896;28;20055;-66
2023/04/18 09:53:43;;;;;;;7.57;3.92;;;6.10;99.90;;;;;;5017229;28;20056;-63
2023/04/18 09:56:24;;;;;;;6.75;3.92;;;6.10;99.90;;;;;;5013471;28;20077;-62
2023/04/18 09:59:00;;;;;;;9.40;4.47;;;6.20;99.90;;;;;;5004327;28;20057;-64
2023/04/18 10:01:28;;;;;;;10.00;4.13;;;6.20;99.90;;;;;;5022124;28;20049;-62
2023/04/18 10:03:56;;;;;;;4.93;3.60;;;6.20;99.90;;;;;;5026260;28;20041;-66
2023/04/18 10:06:26;;;;;;;12.10;4.47;;;6.20;99.90;;;;;;5016939;28;20054;-64
2023/04/18 10:08:54;;;;;;;5.95;3.63;;;6.20;99.90;;;;;;5022540;28;20053;-63
2023/04/18 10:11:23;;;;;;;7.60;4.45;;;6.20;99.90;;;;;;5019627;28;20482;-63
2023/04/18 10:13:54;;;;;;;7.35;3.63;;;6.30;99.90;;;;;;5013798;28;20049;-63
2023/04/18 10:16:22;;;;;;;9.63;3.63;;;6.30;99.90;;;;;;5014159;28;20136;-64
2023/04/18 10:18:52;;;;;;;9.50;5.57;;;6.30;99.90;;;;;;5009149;28;20136;-65
2023/04/18 10:21:20;;;;;;;9.18;4.45;;;6.40;99.90;;;;;;5018557;28;20133;-62
2023/04/18 10:23:47;;;;;;;5.55;4.05;;;6.40;99.90;;;;;;5009324;28;20052;-62
2023/04/18 10:26:15;;;;;;;13.30;4.55;;;6.40;99.90;;;;;;5000081;28;20435;-63
2023/04/18 10:28:55;;;;;;;8.02;4.18;;;6.40;99.90;;;;;;5011304;28;20041;-64
2023/04/18 10:31:26;;;;;;;5.63;4.03;;;6.50;99.90;;;;;;5004616;28;20262;-62
2023/04/18 10:33:56;;;;;;;5.13;3.67;;;6.60;99.90;;;;;;5003313;28;20496;-63
2023/04/18 10:36:27;;;;;;;12.02;4.40;;;6.70;99.90;;;;;;5013438;28;20058;-60
2023/04/18 10:39:21;;;;;;;5.07;3.28;;;6.60;99.90;;;;;;5013590;28;20087;-71
2023/04/18 10:41:49;;;;;;;10.77;5.28;;;6.60;99.90;;;;;;5014038;28;20585;-65
2023/04/18 10:44:21;;;;;;;10.85;3.95;;;6.60;99.90;;;;;;5021597;28;20049;-65
2023/04/18 10:46:51;;;;;;;6.65;3.70;;;6.60;99.90;;;;;;5015390;28;20046;-67
2023/04/18 10:49:21;;;;;;;7.40;4.35;;;6.60;99.90;;;;;;5015433;28;20167;-63
2023/04/18 10:51:52;;;;;;;5.53;4.07;;;6.70;99.90;;;;;;5008057;28;20112;-66
2023/04/18 10:54:31;;;;;;;8.38;4.40;;;6.80;99.90;;;;;;5007218;28;20736;-61
2023/04/18 10:57:03;;;;;;;8.00;4.72;;;6.90;99.90;;;;;;5002207;28;20107;-64
2023/04/18 10:59:31;;;;;;;10.73;5.32;;;6.80;99.90;;;;;;5016168;28;20046;-63
2023/04/18 11:02:24;;;;;;;12.63;3.90;;;6.80;99.90;;;;;;5018093;28;20057;-64
2023/04/18 11:04:59;;;;;;;6.22;4.00;;;6.80;99.90;;;;;;5020758;28;20080;-63
2023/04/18 11:07:36;;;;;;;5.90;3.90;;;6.80;99.90;;;;;;5013411;28;20058;-69
2023/04/18 11:10:05;;;;;;;7.40;3.60;;;6.80;99.90;;;;;;5012938;28;20072;-61
2023/04/18 11:12:33;;;;;;;9.15;3.78;;;6.80;99.90;;;;;;5013457;28;20049;-68
2023/04/18 11:15:09;;;;;;;9.38;3.58;;;6.80;99.90;;;;;;5003542;28;20128;-65
2023/04/18 11:17:38;;;;;;;8.48;3.47;;;7.00;99.90;;;;;;5015012;28;20061;-68
2023/04/18 11:20:13;;;;;;;12.35;3.78;;;7.00;99.90;;;;;;5013483;28;20050;-68
2023/04/18 11:22:58;;;;;;;18.42;5.00;;;7.10;99.90;;;;;;5008364;28;20481;-65
2023/04/18 11:25:35;;;;;;;6.70;3.42;;;7.10;99.90;;;;;;5012920;28;20044;-62
2023/04/18 11:28:03;;;;;;;9.10;3.90;;;7.00;99.90;;;;;;5017858;28;20095;-66
2023/04/18 11:30:40;;;;;;;7.68;4.45;;;7.00;99.90;;;;;;5009444;28;20054;-65
2023/04/18 11:33:08;;;;;;;11.13;4.72;;;7.00;99.90;;;;;;5000674;28;20113;-61
2023/04/18 11:35:42;;;;;;;6.50;3.63;;;7.00;99.90;;;;;;5018913;28;20545;-62
2023/04/18 11:38:13;;;;;;;3.58;2.70;;;7.10;99.90;;;;;;5012822;28;20088;-68
2023/04/18 11:40:47;;;;;;;4.72;3.63;;;7.20;99.90;;;;;;5011502;28;20057;-66
2023/04/18 11:43:20;;;;;;;8.55;4.10;;;7.10;99.90;;;;;;5011545;28;20076;-61
2023/04/18 11:45:54;;;;;;;11.73;4.07;;;7.10;99.90;;;;;;5017126;28;20046;-63
2023/04/18 11:48:22;;;;;;;12.05;4.88;;;7.10;99.90;;;;;;5017598;28;20077;-65
2023/04/18 11:50:49;;;;;;;6.80;3.22;;;7.10;99.90;;;;;;5017282;28;20144;-63
2023/04/18 11:53:34;;;;;;;3.63;2.97;;;7.00;99.90;;;;;;4998403;28;20144;-66
2023/04/18 11:56:02;;;;;;;13.05;3.22;;;7.00;99.90;;;;;;5013161;28;20053;-64
2023/04/18 11:58:31;;;;;;;5.47;3.95;;;7.10;99.90;;;;;;5010228;28;20142;-65
2023/04/18 12:01:18;;;;;;;9.35;3.72;;;7.10;99.90;;;;;;4998117;28;20081;-61
2023/04/18 12:04:00;;;;;;;10.90;4.72;;;7.20;99.90;;;;;;5016838;28;20147;-67
2023/04/18 12:06:51;;;;;;;10.27;3.50;;;7.40;99.90;;;;;;5003179;28;20134;-60
2023/04/18 12:09:20;;;;;;;7.15;3.85;;;7.40;99.90;;;;;;4998551;28;20062;-63
2023/04/18 12:12:01;;;;;;;4.57;3.55;;;7.40;99.90;;;;;;5010611;28;20052;-61
2023/04/18 12:14:29;;;;;;;5.72;3.75;;;7.40;99.90;;;;;;5009344;28;20516;-64
2023/04/18 12:16:56;;;;;;;5.07;3.78;;;7.50;99.90;;;;;;5012110;28;20143;-63
2023/04/18 12:19:27;;;;;;;8.35;3.47;;;7.50;99.90;;;;;;5027136;28;20068;-65
2023/04/18 12:22:08;;;;;;;5.43;3.63;;;7.60;99.90;;;;;;4999713;28;20046;-63
2023/04/18 12:24:36;;;;;;;14.32;6.03;;;7.60;99.90;;;;;;5020258;28;20058;-63
2023/04/18 12:27:03;;;;;;;5.78;3.33;;;7.60;99.90;;;;;;5018899;28;20132;-67
2023/04/18 12:29:30;;;;;;;8.55;3.67;;;7.50;99.90;;;;;;5001944;28;20081;-64
2023/04/18 12:31:57;;;;;;;10.73;4.00;;;7.60;99.90;;;;;;5003495;28;20140;-61
2023/04/18 12:34:24;;;;;;;10.38;3.50;;;7.50;99.90;;;;;;5013475;28;20053;-63
2023/04/18 12:36:52;;;;;;;9.73;3.67;;;7.50;99.90;;;;;;5014803;28;20064;-64
2023/04/18 12:39:19;;;;;;;5.30;3.00;;;7.50;99.90;;;;;;5020168;28;20551;-64
2023/04/18 12:41:46;;;;;;;12.10;4.28;;;7.50;99.90;;;;;;5018173;28;20145;-66
2023/04/18 12:44:15;;;;;;;5.22;3.25;;;7.50;99.90;;;;;;5015478;28;20049;-65
2023/04/18 12:46:42;;;;;;;6.25;3.45;;;7.60;99.90;;;;;;5012514;28;20447;-62
2023/04/18 12:49:09;;;;;;;8.13;4.20;;;7.60;99.90;;;;;;5022931;28;20064;-61
2023/04/18 12:51:36;;;;;;;7.72;2.67;;;7.70;99.90;;;;;;5014045;28;20062;-61
2023/04/18 12:54:03;;;;;;;18.25;4.40;;;7.80;99.90;;;;;;5002651;28;20077;-62
2023/04/18 12:56:30;;;;;;;7.63;2.95;;;7.80;99.90;;;;;;5011931;28;20049;-61
2023/04/18 12:58:57;;;;;;;9.20;3.80;;;8.00;99.90;;;;;;5011499;28;20089;-63
2023/04/18 13:01:24;;;;;;;6.05;3.60;;;7.90;99.90;;;;;;5013794;28;20407;-62
2023/04/18 13:03:51;;;;;;;9.48;5.43;;;8.00;99.90;;;;;;5016695;28;20605;-67
2023/04/18 13:06:37;;;;;;;8.13;4.05;;;8.10;99.90;;;;;;5015691;28;20067;-62
2023/04/18 13:09:03;;;;;;;3.97;2.88;;;8.20;99.90;;;;;;5020210;28;20478;-63